Time;durP1;ratioP1;P1;durP2;ratioP2;P2;SDS_P1;SDS_P2;PMS_P1;PMS_P2;Temp;Humidity;BMP_temperature;BMP_pressure;BME280_temperature;BME280_humidity;BME280_pressure;Samples;Min_cycle;Max_cycle;Signal;HPM_P1;HPM_P2
2023/07/02 00:01:45;;;;;;;;;44.33;33.33;;;;;;;;5016806;28;45323;-79
2023/07/02 00:04:13;;;;;;;;;46.00;33.33;;;;;;;;5017276;28;45468;-79
2023/07/02 00:06:40;;;;;;;;;36.00;31.67;;;;;;;;5017006;28;45522;-77
2023/07/02 00:09:10;;;;;;;;;33.67;27.33;;;;;;;;5017548;28;45494;-79
2023/07/02 00:11:35;;;;;;;;;42.33;31.33;;;;;;;;4999267;28;45369;-78
2023/07/02 00:14:00;;;;;;;;;40.67;32.00;;;;;;;;5016920;28;45707;-79
2023/07/02 00:16:25;;;;;;;;;35.00;30.67;;;;;;;;5016524;28;45784;-79
2023/07/02 00:18:54;;;;;;;;;36.33;32.67;;;;;;;;5010092;28;45813;-78
2023/07/02 00:21:20;;;;;;;;;41.00;31.33;;;;;;;;5011361;28;45458;-77
2023/07/02 00:23:45;;;;;;;;;38.00;26.00;;;;;;;;5016381;28;45593;-78
2023/07/02 00:26:11;;;;;;;;;46.67;31.67;;;;;;;;5016666;28;45970;-78
2023/07/02 00:28:36;;;;;;;;;37.67;32.00;;;;;;;;5015149;28;45455;-79
2023/07/02 00:31:02;;;;;;;;;42.00;32.67;;;;;;;;5010269;28;45463;-77
2023/07/02 00:33:28;;;;;;;;;38.00;31.00;;;;;;;;4997659;28;46711;-78
2023/07/02 00:35:54;;;;;;;;;33.67;27.67;;;;;;;;4999066;28;46321;-79
2023/07/02 00:38:19;;;;;;;;;38.00;27.67;;;;;;;;5016724;28;45759;-78
2023/07/02 00:40:44;;;;;;;;;33.00;28.67;;;;;;;;4998219;28;45917;-78
2023/07/02 00:43:12;;;;;;;;;35.00;27.33;;;;;;;;5012754;28;45656;-77
2023/07/02 00:45:39;;;;;;;;;42.00;35.00;;;;;;;;5007755;28;46399;-77
2023/07/02 00:48:05;;;;;;;;;39.00;30.67;;;;;;;;4996971;28;45377;-78
2023/07/02 00:50:30;;;;;;;;;37.33;28.33;;;;;;;;5015814;28;45352;-78
2023/07/02 00:52:55;;;;;;;;;37.33;30.33;;;;;;;;4988262;28;46992;-78
2023/07/02 00:55:20;;;;;;;;;39.00;30.33;;;;;;;;5028302;28;47403;-79
2023/07/02 00:57:46;;;;;;;;;35.67;28.33;;;;;;;;5016675;28;45681;-77
2023/07/02 01:00:12;;;;;;;;;32.00;26.00;;;;;;;;4998656;28;45476;-78
2023/07/02 01:02:38;;;;;;;;;41.67;28.67;;;;;;;;5014704;28;45597;-77
2023/07/02 01:05:03;;;;;;;;;33.67;28.00;;;;;;;;5012572;28;46356;-77
2023/07/02 01:07:29;;;;;;;;;46.00;35.67;;;;;;;;5013243;28;45835;-77
2023/07/02 01:09:54;;;;;;;;;34.33;29.33;;;;;;;;5015226;28;45794;-77
2023/07/02 01:12:21;;;;;;;;;42.33;33.67;;;;;;;;4998095;28;45763;-77
2023/07/02 01:14:57;;;;;;;;;44.00;30.00;;;;;;;;5015437;28;47522;-79
2023/07/02 01:17:23;;;;;;;;;39.33;30.67;;;;;;;;4998069;28;45421;-78
2023/07/02 01:19:58;;;;;;;;;36.67;31.67;;;;;;;;5011948;28;45460;-77
2023/07/02 01:22:26;;;;;;;;;33.67;28.33;;;;;;;;5013302;28;45541;-77
2023/07/02 01:24:52;;;;;;;;;30.00;27.33;;;;;;;;5015488;28;45538;-77
2023/07/02 01:27:18;;;;;;;;;46.67;30.33;;;;;;;;5015806;28;45441;-78
2023/07/02 01:29:47;;;;;;;;;42.00;33.00;;;;;;;;4996867;28;45452;-78
2023/07/02 01:32:14;;;;;;;;;42.33;31.67;;;;;;;;5015796;28;45375;-77
2023/07/02 01:34:39;;;;;;;;;34.33;29.33;;;;;;;;5014298;28;46432;-77
2023/07/02 01:37:05;;;;;;;;;38.00;32.33;;;;;;;;5008918;28;45511;-76
2023/07/02 01:39:31;;;;;;;;;43.00;31.67;;;;;;;;4995626;28;45392;-76
2023/07/02 01:42:09;;;;;;;;;42.33;33.00;;;;;;;;5015931;28;45525;-78
2023/07/02 01:44:34;;;;;;;;;31.33;28.67;;;;;;;;5013927;28;46623;-77
2023/07/02 01:46:59;;;;;;;;;44.00;31.00;;;;;;;;5015135;28;45529;-78
2023/07/02 01:49:25;;;;;;;;;36.00;31.00;;;;;;;;5014715;28;45442;-78
2023/07/02 01:51:50;;;;;;;;;33.33;28.33;;;;;;;;5016095;28;45343;-76
2023/07/02 01:54:16;;;;;;;;;38.33;32.67;;;;;;;;5015853;28;46300;-76
2023/07/02 01:56:41;;;;;;;;;43.33;33.00;;;;;;;;5012794;28;45689;-77
2023/07/02 01:59:06;;;;;;;;;39.00;25.67;;;;;;;;5011095;28;45626;-78
2023/07/02 02:01:32;;;;;;;;;42.00;35.67;;;;;;;;4996124;28;45969;-77
2023/07/02 02:03:58;;;;;;;;;35.67;32.33;;;;;;;;4995087;28;46972;-77
2023/07/02 02:06:23;;;;;;;;;35.67;29.33;;;;;;;;5014850;28;45388;-77
2023/07/02 02:08:48;;;;;;;;;53.67;37.00;;;;;;;;4997382;28;45262;-78
2023/07/02 02:11:13;;;;;;;;;31.00;28.67;;;;;;;;5015227;28;45450;-77
2023/07/02 02:13:39;;;;;;;;;38.33;30.67;;;;;;;;5014636;28;45530;-79
2023/07/02 02:16:04;;;;;;;;;38.33;30.33;;;;;;;;4997042;28;45330;-78
2023/07/02 02:18:29;;;;;;;;;35.33;27.33;;;;;;;;4996615;28;45439;-81
2023/07/02 02:20:54;;;;;;;;;39.33;32.33;;;;;;;;5014998;28;45616;-78
2023/07/02 02:23:20;;;;;;;;;33.33;28.67;;;;;;;;5015669;28;45566;-80
2023/07/02 02:25:45;;;;;;;;;34.33;29.00;;;;;;;;4997333;28;45348;-80
2023/07/02 02:28:10;;;;;;;;;34.33;28.33;;;;;;;;5015299;28;45813;-80
2023/07/02 02:30:35;;;;;;;;;34.00;28.00;;;;;;;;5014617;28;45375;-80
2023/07/02 02:33:00;;;;;;;;;36.67;28.67;;;;;;;;5014562;28;46035;-77
2023/07/02 02:35:26;;;;;;;;;40.33;29.33;;;;;;;;5014346;28;45437;-80
2023/07/02 02:37:51;;;;;;;;;34.00;27.33;;;;;;;;5015100;28;45521;-81
2023/07/02 02:40:16;;;;;;;;;38.67;29.67;;;;;;;;5015404;28;45356;-79
2023/07/02 02:42:41;;;;;;;;;37.67;29.00;;;;;;;;4989711;28;48562;-79
2023/07/02 02:45:07;;;;;;;;;32.00;26.00;;;;;;;;5012334;28;45482;-80
2023/07/02 02:47:32;;;;;;;;;36.33;29.00;;;;;;;;5014940;28;45860;-80
2023/07/02 02:49:57;;;;;;;;;42.00;34.00;;;;;;;;5012474;28;45772;-77
2023/07/02 02:52:22;;;;;;;;;40.67;29.33;;;;;;;;5012902;28;45838;-76
2023/07/02 02:54:49;;;;;;;;;32.00;26.33;;;;;;;;5013237;28;45921;-78
2023/07/02 02:57:15;;;;;;;;;37.00;29.33;;;;;;;;5014002;28;45691;-79
2023/07/02 02:59:40;;;;;;;;;40.33;30.33;;;;;;;;5012375;28;45529;-77
2023/07/02 03:02:05;;;;;;;;;35.00;29.33;;;;;;;;5010621;28;46440;-78
2023/07/02 03:04:30;;;;;;;;;39.33;26.33;;;;;;;;5013402;28;45419;-77
2023/07/02 03:06:56;;;;;;;;;38.00;30.67;;;;;;;;5014272;28;45719;-79
2023/07/02 03:09:21;;;;;;;;;32.00;25.67;;;;;;;;5012891;28;45537;-80
2023/07/02 03:11:47;;;;;;;;;37.33;28.00;;;;;;;;5014691;28;46532;-80
2023/07/02 03:14:12;;;;;;;;;41.67;31.67;;;;;;;;4996715;28;45403;-76
2023/07/02 03:16:38;;;;;;;;;35.33;31.00;;;;;;;;5014796;28;45416;-79
2023/07/02 03:19:03;;;;;;;;;34.00;28.00;;;;;;;;5014178;28;45660;-78
2023/07/02 03:21:29;;;;;;;;;36.33;31.67;;;;;;;;5014143;28;45906;-78
2023/07/02 03:23:55;;;;;;;;;24.33;21.67;;;;;;;;4996214;28;45787;-80
2023/07/02 03:26:21;;;;;;;;;30.67;24.33;;;;;;;;5012658;28;45814;-80
2023/07/02 03:28:46;;;;;;;;;34.00;25.33;;;;;;;;5010374;28;45405;-78
2023/07/02 03:31:11;;;;;;;;;30.67;24.33;;;;;;;;5012815;28;46597;-77
2023/07/02 03:33:37;;;;;;;;;34.33;22.00;;;;;;;;4996127;28;45578;-79
2023/07/02 03:36:02;;;;;;;;;32.00;28.00;;;;;;;;5012123;28;45810;-78
2023/07/02 03:38:27;;;;;;;;;31.00;27.00;;;;;;;;4995397;28;45856;-79
2023/07/02 03:40:52;;;;;;;;;25.67;20.33;;;;;;;;5013348;28;45692;-78
2023/07/02 03:43:18;;;;;;;;;29.33;28.67;;;;;;;;5011828;28;45477;-79
2023/07/02 03:45:43;;;;;;;;;29.33;24.00;;;;;;;;5012377;28;45401;-78
2023/07/02 03:48:08;;;;;;;;;31.00;24.00;;;;;;;;5010582;28;45470;-79
2023/07/02 03:50:33;;;;;;;;;30.33;24.00;;;;;;;;5010737;28;46543;-79
2023/07/02 03:52:59;;;;;;;;;34.33;27.00;;;;;;;;4996163;28;45478;-80
2023/07/02 03:55:24;;;;;;;;;29.67;24.00;;;;;;;;4982947;28;45454;-81
2023/07/02 03:57:50;;;;;;;;;36.00;26.00;;;;;;;;5008111;28;45484;-80
2023/07/02 04:00:15;;;;;;;;;29.00;24.67;;;;;;;;5011618;28;46216;-79
2023/07/02 04:02:40;;;;;;;;;32.67;29.33;;;;;;;;5014819;28;45609;-79
2023/07/02 04:05:06;;;;;;;;;41.33;32.00;;;;;;;;5015894;28;45805;-79
2023/07/02 04:07:31;;;;;;;;;32.00;26.00;;;;;;;;5016646;28;45834;-80
2023/07/02 04:09:56;;;;;;;;;31.33;26.33;;;;;;;;4999473;28;47329;-79
2023/07/02 04:12:21;;;;;;;;;28.67;26.00;;;;;;;;5017011;28;45773;-76
2023/07/02 04:14:47;;;;;;;;;31.00;23.00;;;;;;;;5014565;28;45541;-79
2023/07/02 04:17:12;;;;;;;;;27.00;20.67;;;;;;;;5014975;28;45559;-79
2023/07/02 04:19:37;;;;;;;;;31.00;24.00;;;;;;;;5016683;28;45712;-78
2023/07/02 04:22:02;;;;;;;;;31.33;24.00;;;;;;;;5017941;28;45709;-78
2023/07/02 04:24:28;;;;;;;;;28.33;21.33;;;;;;;;5016581;28;45654;-78
2023/07/02 04:26:53;;;;;;;;;42.00;25.67;;;;;;;;5016840;28;45698;-76
2023/07/02 04:29:18;;;;;;;;;26.67;24.67;;;;;;;;5017200;28;45863;-78
2023/07/02 04:31:44;;;;;;;;;25.67;21.00;;;;;;;;5017090;28;45371;-78
2023/07/02 04:34:09;;;;;;;;;33.33;21.33;;;;;;;;5015472;28;45751;-78
2023/07/02 04:36:34;;;;;;;;;26.00;22.33;;;;;;;;4982985;28;46837;-78
2023/07/02 04:39:00;;;;;;;;;30.33;25.33;;;;;;;;5015064;28;46352;-77
2023/07/02 04:41:26;;;;;;;;;28.67;24.00;;;;;;;;5016244;28;45665;-78
2023/07/02 04:43:51;;;;;;;;;29.33;23.67;;;;;;;;5016205;28;45473;-79
2023/07/02 04:46:17;;;;;;;;;28.33;21.67;;;;;;;;5016115;28;45525;-76
2023/07/02 04:48:43;;;;;;;;;24.33;19.33;;;;;;;;5016140;28;46805;-79
2023/07/02 04:51:08;;;;;;;;;27.33;21.33;;;;;;;;4999481;28;45432;-81
2023/07/02 04:53:33;;;;;;;;;31.67;22.67;;;;;;;;5016745;28;45431;-77
2023/07/02 04:55:58;;;;;;;;;39.33;27.00;;;;;;;;5016860;28;45381;-78
2023/07/02 04:58:24;;;;;;;;;32.67;25.00;;;;;;;;4984889;28;47411;-75
2023/07/02 05:00:49;;;;;;;;;25.67;23.67;;;;;;;;5015560;28;45411;-78
2023/07/02 05:03:14;;;;;;;;;26.33;19.00;;;;;;;;5016778;28;45512;-78
2023/07/02 05:05:39;;;;;;;;;33.33;28.67;;;;;;;;5015073;28;45846;-78
2023/07/02 05:08:05;;;;;;;;;30.33;21.00;;;;;;;;5013826;28;45799;-77
2023/07/02 05:10:30;;;;;;;;;28.33;20.67;;;;;;;;5016246;28;45660;-78
2023/07/02 05:12:55;;;;;;;;;27.33;24.33;;;;;;;;5016243;28;45618;-78
2023/07/02 05:15:20;;;;;;;;;31.00;27.67;;;;;;;;5024648;28;45320;-77
2023/07/02 05:17:45;;;;;;;;;26.33;22.67;;;;;;;;5012891;28;46189;-76
2023/07/02 05:20:11;;;;;;;;;27.67;22.00;;;;;;;;5014685;28;45491;-76
2023/07/02 05:22:36;;;;;;;;;23.33;19.67;;;;;;;;5015988;28;45395;-78
2023/07/02 05:25:01;;;;;;;;;24.00;18.67;;;;;;;;5016859;28;45390;-76
2023/07/02 05:27:26;;;;;;;;;27.33;22.33;;;;;;;;5014451;28;45624;-76
2023/07/02 05:29:52;;;;;;;;;22.33;20.67;;;;;;;;5015979;28;45541;-78
2023/07/02 05:32:17;;;;;;;;;28.33;22.00;;;;;;;;4997748;28;45550;-76
2023/07/02 05:34:42;;;;;;;;;22.00;20.00;;;;;;;;4996010;28;46275;-77
2023/07/02 05:37:07;;;;;;;;;22.67;19.00;;;;;;;;5013432;28;46091;-78
2023/07/02 05:39:35;;;;;;;;;25.00;21.00;;;;;;;;5013161;28;45431;-77
2023/07/02 05:42:01;;;;;;;;;25.67;20.33;;;;;;;;5013329;28;45352;-76
2023/07/02 05:44:26;;;;;;;;;22.33;19.67;;;;;;;;5002294;28;45644;-78
2023/07/02 05:46:51;;;;;;;;;26.33;19.67;;;;;;;;5014130;28;46038;-79
2023/07/02 05:49:16;;;;;;;;;24.00;18.67;;;;;;;;5013894;28;45426;-78
2023/07/02 05:51:42;;;;;;;;;28.33;22.00;;;;;;;;4993507;28;46137;-77
2023/07/02 05:54:09;;;;;;;;;28.33;22.33;;;;;;;;4992702;28;45920;-78
2023/07/02 05:56:34;;;;;;;;;23.67;22.33;;;;;;;;4993036;28;48201;-79
2023/07/02 05:58:59;;;;;;;;;26.67;21.67;;;;;;;;4985985;28;45728;-79
2023/07/02 06:01:24;;;;;;;;;24.33;18.67;;;;;;;;4986942;28;45650;-78
2023/07/02 06:03:50;;;;;;;;;25.00;19.00;;;;;;;;5009893;28;45560;-77
2023/07/02 06:06:15;;;;;;;;;26.00;20.67;;;;;;;;4993496;28;46082;-78
2023/07/02 06:08:41;;;;;;;;;27.33;21.67;;;;;;;;4988706;28;45583;-78
2023/07/02 06:11:06;;;;;;;;;27.33;22.00;;;;;;;;5008188;28;46146;-76
2023/07/02 06:13:31;;;;;;;;;22.33;20.67;;;;;;;;5005877;28;45606;-80
2023/07/02 06:15:57;;;;;;;;;20.00;19.00;;;;;;;;5000943;28;46191;-79
2023/07/02 06:18:22;;;;;;;;;25.00;19.33;;;;;;;;5008242;28;45443;-81
2023/07/02 06:20:47;;;;;;;;;20.00;17.00;;;;;;;;5006274;28;45469;-79
2023/07/02 06:23:13;;;;;;;;;25.00;19.00;;;;;;;;5012172;28;45654;-78
2023/07/02 06:25:38;;;;;;;;;27.00;22.67;;;;;;;;5011309;28;45689;-78
2023/07/02 06:28:03;;;;;;;;;25.33;22.00;;;;;;;;5012640;28;45538;-78
2023/07/02 06:30:28;;;;;;;;;33.67;30.67;;;;;;;;5012544;28;45426;-77
2023/07/02 06:32:54;;;;;;;;;44.67;35.00;;;;;;;;5010589;28;45633;-78
2023/07/02 06:35:19;;;;;;;;;36.67;28.00;;;;;;;;5008514;28;45804;-80
2023/07/02 06:37:45;;;;;;;;;28.00;24.00;;;;;;;;5010543;28;45505;-81
2023/07/02 06:40:11;;;;;;;;;26.67;23.67;;;;;;;;4996521;28;45506;-80
2023/07/02 06:42:36;;;;;;;;;27.67;23.33;;;;;;;;4995131;28;46187;-77
2023/07/02 06:45:02;;;;;;;;;29.00;24.33;;;;;;;;4996277;28;47046;-78
2023/07/02 06:47:27;;;;;;;;;27.33;23.00;;;;;;;;5012695;28;45871;-77
2023/07/02 06:49:53;;;;;;;;;33.67;22.33;;;;;;;;5012387;28;45695;-76
2023/07/02 06:52:18;;;;;;;;;27.67;21.67;;;;;;;;5011774;28;45471;-78
2023/07/02 06:54:43;;;;;;;;;23.67;23.67;;;;;;;;5011849;28;45502;-77
2023/07/02 06:57:08;;;;;;;;;34.67;28.33;;;;;;;;5011294;28;45425;-78
2023/07/02 06:59:34;;;;;;;;;31.67;23.00;;;;;;;;5011404;28;45629;-77
2023/07/02 07:01:59;;;;;;;;;29.67;21.67;;;;;;;;5011283;28;45750;-80
2023/07/02 07:04:24;;;;;;;;;28.67;22.00;;;;;;;;4994532;28;46201;-76
2023/07/02 07:06:50;;;;;;;;;22.00;20.00;;;;;;;;5011575;28;45893;-79
2023/07/02 07:09:15;;;;;;;;;27.67;20.67;;;;;;;;5011451;28;45672;-79
2023/07/02 07:11:40;;;;;;;;;23.67;18.33;;;;;;;;5011692;28;45759;-80
2023/07/02 07:14:06;;;;;;;;;20.00;17.67;;;;;;;;4996639;28;47256;-75
2023/07/02 07:16:31;;;;;;;;;18.33;15.67;;;;;;;;5007041;28;46123;-77
2023/07/02 07:18:56;;;;;;;;;21.33;18.00;;;;;;;;5012940;28;45516;-78
2023/07/02 07:21:22;;;;;;;;;22.00;20.00;;;;;;;;5011345;28;45794;-76
2023/07/02 07:23:48;;;;;;;;;20.67;19.33;;;;;;;;5010940;28;45517;-78
2023/07/02 07:26:13;;;;;;;;;24.67;20.67;;;;;;;;4994577;28;47008;-76
2023/07/02 07:28:38;;;;;;;;;23.33;17.67;;;;;;;;5011702;28;45773;-77
2023/07/02 07:31:04;;;;;;;;;19.33;19.00;;;;;;;;4996398;28;45800;-77
2023/07/02 07:33:29;;;;;;;;;24.00;19.00;;;;;;;;5010226;28;45779;-80
2023/07/02 07:35:54;;;;;;;;;28.50;21.50;;;;;;;;5009078;28;45673;-77
2023/07/02 07:38:19;;;;;;;;;26.00;22.33;;;;;;;;5004527;28;45506;-78
2023/07/02 07:40:45;;;;;;;;;22.50;18.00;;;;;;;;5013726;28;45809;-80
2023/07/02 07:43:10;;;;;;;;;21.33;17.33;;;;;;;;5014539;28;45925;-77
2023/07/02 07:45:35;;;;;;;;;24.33;22.67;;;;;;;;5013769;28;45801;-76
2023/07/02 07:48:01;;;;;;;;;21.33;19.33;;;;;;;;4996613;28;45374;-78
2023/07/02 07:50:26;;;;;;;;;27.33;18.67;;;;;;;;5015479;28;45750;-76
2023/07/02 07:52:51;;;;;;;;;25.00;22.00;;;;;;;;5015198;28;46593;-77
2023/07/02 07:55:17;;;;;;;;;20.00;19.50;;;;;;;;5011941;28;45710;-78
2023/07/02 07:57:42;;;;;;;;;24.25;22.25;;;;;;;;4998353;28;45873;-78
2023/07/02 08:00:09;;;;;;;;;24.00;20.00;;;;;;;;5017646;28;45593;-77
2023/07/02 08:02:35;;;;;;;;;23.25;22.00;;;;;;;;5014530;28;46103;-81
2023/07/02 08:05:00;;;;;;;;;24.67;23.00;;;;;;;;5020239;28;45459;-79
2023/07/02 08:07:26;;;;;;;;;22.00;17.33;;;;;;;;5011585;28;45431;-79
2023/07/02 08:09:51;;;;;;;;;23.33;22.67;;;;;;;;4999547;28;45874;-76
2023/07/02 08:12:16;;;;;;;;;31.00;29.00;;;;;;;;5016165;28;45521;-78
2023/07/02 08:14:41;;;;;;;;;27.67;24.00;;;;;;;;5015111;28;45427;-76
2023/07/02 08:17:06;;;;;;;;;27.75;26.00;;;;;;;;5015498;28;45611;-76
2023/07/02 08:19:33;;;;;;;;;53.67;46.00;;;;;;;;4994142;28;46285;-72
2023/07/02 08:21:58;;;;;;;;;23.67;22.67;;;;;;;;5014416;28;45497;-75
2023/07/02 08:24:23;;;;;;;;;21.33;19.33;;;;;;;;5013868;28;45909;-75
2023/07/02 08:26:49;;;;;;;;;51.00;43.00;;;;;;;;5014494;28;45471;-73
2023/07/02 08:29:14;;;;;;;;;30.33;30.33;;;;;;;;5012452;28;45783;-74
2023/07/02 08:31:40;;;;;;;;;56.00;45.33;;;;;;;;5014393;28;45987;-72
2023/07/02 08:34:05;;;;;;;;;60.67;48.33;;;;;;;;5014672;28;45426;-74
2023/07/02 08:36:30;;;;;;;;;84.00;80.25;;;;;;;;4997406;28;45572;-73
2023/07/02 08:38:56;;;;;;;;;78.25;68.00;;;;;;;;5016215;28;45490;-71
2023/07/02 08:41:22;;;;;;;;;64.33;50.67;;;;;;;;5016763;28;46149;-72
2023/07/02 08:43:48;;;;;;;;;41.00;36.33;;;;;;;;4998450;28;45554;-72
2023/07/02 08:46:14;;;;;;;;;35.67;32.67;;;;;;;;5015476;28;45708;-74
2023/07/02 08:48:40;;;;;;;;;42.00;33.33;;;;;;;;4996702;28;45940;-74
2023/07/02 08:51:05;;;;;;;;;60.75;49.25;;;;;;;;4998811;28;47036;-73
2023/07/02 08:53:33;;;;;;;;;37.67;33.00;;;;;;;;5011418;28;45404;-75
2023/07/02 08:55:59;;;;;;;;;32.33;29.33;;;;;;;;5008287;28;45383;-73
2023/07/02 08:58:24;;;;;;;;;35.00;30.67;;;;;;;;5015589;28;45538;-74
2023/07/02 09:01:08;;;;;;;;;26.33;20.00;;;;;;;;5015523;28;46390;-73
2023/07/02 09:03:33;;;;;;;;;58.67;46.67;;;;;;;;5007815;28;45396;-74
2023/07/02 09:05:58;;;;;;;;;32.00;31.33;;;;;;;;5014569;28;45730;-75
2023/07/02 09:08:27;;;;;;;;;24.67;22.00;;;;;;;;5016302;28;45430;-73
2023/07/02 09:10:53;;;;;;;;;27.33;25.33;;;;;;;;5015091;28;47504;-76
2023/07/02 09:13:18;;;;;;;;;22.33;22.00;;;;;;;;5016094;28;45427;-75
2023/07/02 09:15:43;;;;;;;;;46.33;38.33;;;;;;;;4998125;28;45441;-74
2023/07/02 09:18:15;;;;;;;;;29.33;27.00;;;;;;;;4997573;28;45866;-75
2023/07/02 09:20:40;;;;;;;;;26.67;25.67;;;;;;;;5008764;28;45458;-74
2023/07/02 09:23:06;;;;;;;;;25.67;24.33;;;;;;;;5015060;28;45578;-73
2023/07/02 09:25:36;;;;;;;;;34.00;29.67;;;;;;;;5016189;28;45771;-74
2023/07/02 09:28:01;;;;;;;;;30.00;24.33;;;;;;;;5013944;28;45504;-75
2023/07/02 09:30:26;;;;;;;;;31.67;26.33;;;;;;;;5011231;28;47164;-73
2023/07/02 09:32:54;;;;;;;;;25.67;24.67;;;;;;;;5013654;28;45454;-72
2023/07/02 09:35:19;;;;;;;;;33.67;28.67;;;;;;;;5007802;28;45341;-74
2023/07/02 09:37:44;;;;;;;;;24.00;19.67;;;;;;;;5013365;28;45359;-73
2023/07/02 09:40:10;;;;;;;;;19.25;18.00;;;;;;;;5014881;28;46505;-74
2023/07/02 09:42:38;;;;;;;;;33.67;29.67;;;;;;;;4996835;28;46101;-71
2023/07/02 09:45:07;;;;;;;;;23.50;18.00;;;;;;;;5015123;28;45635;-72
2023/07/02 09:47:35;;;;;;;;;25.67;21.67;;;;;;;;5015861;28;45755;-73
2023/07/02 09:50:05;;;;;;;;;22.33;19.33;;;;;;;;5015744;28;46142;-75
2023/07/02 09:52:31;;;;;;;;;15.25;14.50;;;;;;;;5015255;28;45635;-72
2023/07/02 09:54:56;;;;;;;;;26.00;23.67;;;;;;;;5015908;28;45403;-75
2023/07/02 09:57:21;;;;;;;;;18.33;17.67;;;;;;;;4996818;28;47137;-73
2023/07/02 09:59:47;;;;;;;;;25.00;18.25;;;;;;;;5010280;28;45946;-76
2023/07/02 10:02:13;;;;;;;;;21.33;19.67;;;;;;;;4996053;28;45456;-74
2023/07/02 10:04:42;;;;;;;;;27.33;19.00;;;;;;;;5016010;28;45726;-72
2023/07/02 10:07:07;;;;;;;;;21.50;17.75;;;;;;;;5024364;28;45715;-73
2023/07/02 10:09:36;;;;;;;;;21.75;18.50;;;;;;;;5015688;28;46291;-75
2023/07/02 10:12:01;;;;;;;;;20.25;17.00;;;;;;;;4996001;28;45604;-73
2023/07/02 10:14:26;;;;;;;;;15.00;14.75;;;;;;;;5014459;28;45379;-73
2023/07/02 10:16:52;;;;;;;;;17.00;13.75;;;;;;;;5014699;28;45738;-75
2023/07/02 10:19:18;;;;;;;;;21.75;19.50;;;;;;;;5014899;28;46305;-74
2023/07/02 10:21:45;;;;;;;;;21.50;15.75;;;;;;;;5013616;28;45984;-74
2023/07/02 10:24:11;;;;;;;;;19.33;18.00;;;;;;;;5010331;28;45289;-74
2023/07/02 10:26:36;;;;;;;;;25.33;20.33;;;;;;;;5014099;28;45348;-74
2023/07/02 10:29:02;;;;;;;;;19.00;15.00;;;;;;;;5014699;28;46459;-73
2023/07/02 10:31:27;;;;;;;;;18.75;16.50;;;;;;;;5014445;28;45662;-74
2023/07/02 10:33:52;;;;;;;;;21.50;17.00;;;;;;;;5014941;28;45544;-74
2023/07/02 10:36:21;;;;;;;;;17.75;17.00;;;;;;;;5014258;28;45730;-73
2023/07/02 10:38:47;;;;;;;;;17.50;14.50;;;;;;;;4996156;28;46310;-74
2023/07/02 10:41:12;;;;;;;;;17.75;16.50;;;;;;;;5014475;28;45518;-74
2023/07/02 10:43:38;;;;;;;;;18.67;17.00;;;;;;;;5014813;28;45526;-75
2023/07/02 10:46:04;;;;;;;;;19.33;18.33;;;;;;;;5014295;28;45473;-76
2023/07/02 10:48:30;;;;;;;;;20.25;17.75;;;;;;;;5014109;28;45608;-75
2023/07/02 10:50:55;;;;;;;;;19.75;16.25;;;;;;;;5013808;28;45443;-74
2023/07/02 10:53:21;;;;;;;;;16.00;10.50;;;;;;;;5014676;28;45578;-74
2023/07/02 10:55:53;;;;;;;;;21.75;15.50;;;;;;;;5014595;28;45471;-75
2023/07/02 10:58:19;;;;;;;;;15.00;15.00;;;;;;;;5014431;28;45674;-74
2023/07/02 11:00:45;;;;;;;;;17.25;15.50;;;;;;;;5013520;28;45429;-75
2023/07/02 11:03:20;;;;;;;;;14.75;13.00;;;;;;;;5014465;28;45411;-75
2023/07/02 11:05:46;;;;;;;;;17.25;15.75;;;;;;;;5013867;28;45360;-76
2023/07/02 11:08:11;;;;;;;;;17.25;15.50;;;;;;;;4996588;28;47946;-74
2023/07/02 11:10:36;;;;;;;;;17.75;15.00;;;;;;;;5014363;28;45677;-77
2023/07/02 11:13:12;;;;;;;;;18.00;13.33;;;;;;;;4996077;28;46281;-76
2023/07/02 11:15:37;;;;;;;;;17.33;16.33;;;;;;;;5014069;28;45929;-76
2023/07/02 11:18:12;;;;;;;;;14.75;11.50;;;;;;;;4996153;28;46465;-74
2023/07/02 11:20:38;;;;;;;;;20.75;17.25;;;;;;;;5007699;28;45803;-76
2023/07/02 11:23:03;;;;;;;;;20.75;14.25;;;;;;;;4995878;28;45891;-74
2023/07/02 11:25:28;;;;;;;;;20.00;16.50;;;;;;;;5013894;28;45504;-74
2023/07/02 11:28:03;;;;;;;;;12.75;11.75;;;;;;;;5014225;28;45348;-75
2023/07/02 11:30:28;;;;;;;;;14.50;13.75;;;;;;;;4993580;28;45361;-75
2023/07/02 11:32:54;;;;;;;;;16.00;12.75;;;;;;;;5015351;28;45500;-78
2023/07/02 11:35:20;;;;;;;;;17.75;14.50;;;;;;;;5013315;28;45692;-76
2023/07/02 11:37:46;;;;;;;;;14.50;12.25;;;;;;;;4990753;28;45944;-74
2023/07/02 11:40:12;;;;;;;;;17.25;13.25;;;;;;;;5010117;28;45745;-74
2023/07/02 11:42:37;;;;;;;;;12.00;12.00;;;;;;;;4995815;28;45694;-75
2023/07/02 11:45:03;;;;;;;;;19.00;14.50;;;;;;;;5010082;28;45313;-75
2023/07/02 11:47:28;;;;;;;;;10.00;9.75;;;;;;;;5010541;28;45914;-75
2023/07/02 11:49:56;;;;;;;;;22.67;16.33;;;;;;;;4993557;28;45268;-76
2023/07/02 11:52:21;;;;;;;;;16.00;15.00;;;;;;;;5010929;28;45712;-78
2023/07/02 11:54:47;;;;;;;;;16.50;13.75;;;;;;;;5005029;28;45790;-76
2023/07/02 11:57:12;;;;;;;;;18.75;14.50;;;;;;;;5006546;28;46377;-76
2023/07/02 11:59:37;;;;;;;;;14.50;11.50;;;;;;;;5011170;28;45412;-76
2023/07/02 12:02:03;;;;;;;;;14.50;14.25;;;;;;;;5008619;28;46375;-75
2023/07/02 12:04:28;;;;;;;;;18.25;15.00;;;;;;;;5010763;28;45530;-77
2023/07/02 12:06:53;;;;;;;;;14.75;12.50;;;;;;;;5010996;28;46223;-74
2023/07/02 12:09:18;;;;;;;;;15.00;14.25;;;;;;;;5009323;28;45569;-75
2023/07/02 12:11:46;;;;;;;;;17.00;13.25;;;;;;;;5010519;28;45449;-80
2023/07/02 12:14:12;;;;;;;;;16.00;15.00;;;;;;;;5010870;28;45704;-78
2023/07/02 12:16:37;;;;;;;;;12.50;12.50;;;;;;;;4992087;28;47489;-77
2023/07/02 12:19:02;;;;;;;;;16.00;11.25;;;;;;;;5010200;28;46083;-79
2023/07/02 12:21:27;;;;;;;;;14.50;13.50;;;;;;;;5010437;28;45895;-76
2023/07/02 12:23:53;;;;;;;;;16.75;12.00;;;;;;;;4994467;28;47342;-77
2023/07/02 12:26:18;;;;;;;;;14.25;14.00;;;;;;;;5013402;28;45972;-77
2023/07/02 12:28:43;;;;;;;;;8.75;6.75;;;;;;;;4992001;28;45400;-76
2023/07/02 12:31:09;;;;;;;;;19.25;17.00;;;;;;;;5012453;28;45718;-77
2023/07/02 12:33:34;;;;;;;;;20.00;15.75;;;;;;;;5014218;28;45805;-76
2023/07/02 12:35:59;;;;;;;;;14.00;9.75;;;;;;;;5013889;28;45408;-76
2023/07/02 12:38:24;;;;;;;;;15.00;13.75;;;;;;;;5014941;28;45422;-77
2023/07/02 12:40:50;;;;;;;;;18.00;13.50;;;;;;;;5015325;28;45415;-77
2023/07/02 12:43:15;;;;;;;;;14.25;11.00;;;;;;;;5014799;28;45601;-77
2023/07/02 12:45:40;;;;;;;;;10.25;10.00;;;;;;;;4973538;28;1136690;-78
2023/07/02 12:48:05;;;;;;;;;18.75;12.25;;;;;;;;5007793;28;45405;-77
2023/07/02 12:50:31;;;;;;;;;13.00;11.50;;;;;;;;5016558;28;45616;-75
2023/07/02 12:52:56;;;;;;;;;13.25;12.75;;;;;;;;5015754;28;45830;-79
2023/07/02 12:55:21;;;;;;;;;13.00;9.75;;;;;;;;5010991;28;46694;-77
2023/07/02 12:57:47;;;;;;;;;10.25;9.75;;;;;;;;5015569;28;45750;-76
2023/07/02 13:00:12;;;;;;;;;14.33;11.00;;;;;;;;5014877;28;45400;-77
2023/07/02 13:02:37;;;;;;;;;12.75;11.50;;;;;;;;5015197;28;45443;-75
2023/07/02 13:05:03;;;;;;;;;13.00;11.25;;;;;;;;4996194;28;46098;-75
2023/07/02 13:07:30;;;;;;;;;10.25;8.00;;;;;;;;5016133;28;45285;-77
2023/07/02 13:09:55;;;;;;;;;13.50;11.25;;;;;;;;5014800;28;45582;-77
2023/07/02 13:12:23;;;;;;;;;10.50;9.25;;;;;;;;5015057;28;45391;-76
2023/07/02 13:14:48;;;;;;;;;15.00;10.50;;;;;;;;5014185;28;46312;-78
2023/07/02 13:17:16;;;;;;;;;13.00;10.75;;;;;;;;5015362;28;45968;-82
2023/07/02 13:19:42;;;;;;;;;15.50;11.00;;;;;;;;4997331;28;45635;-78
2023/07/02 13:22:07;;;;;;;;;9.00;8.75;;;;;;;;5010931;28;45514;-79
2023/07/02 13:24:36;;;;;;;;;12.50;10.25;;;;;;;;5015293;28;46152;-78
2023/07/02 13:27:06;;;;;;;;;13.50;11.50;;;;;;;;5015903;28;45627;-78
2023/07/02 13:29:31;;;;;;;;;11.33;10.00;;;;;;;;4989697;28;45551;-79
2023/07/02 13:31:57;;;;;;;;;15.33;9.33;;;;;;;;4997866;28;46385;-82
2023/07/02 13:34:22;;;;;;;;;8.00;7.00;;;;;;;;5014507;28;45603;-77
2023/07/02 13:36:47;;;;;;;;;13.33;11.33;;;;;;;;5014799;28;45377;-80
2023/07/02 13:39:12;;;;;;;;;10.00;9.50;;;;;;;;5015992;28;45578;-78
2023/07/02 13:41:38;;;;;;;;;14.00;12.00;;;;;;;;5014966;28;45374;-78
2023/07/02 13:44:03;;;;;;;;;10.50;9.75;;;;;;;;5014088;28;46301;-79
2023/07/02 13:46:28;;;;;;;;;18.00;11.25;;;;;;;;5012931;28;45333;-78
2023/07/02 13:48:54;;;;;;;;;12.33;12.00;;;;;;;;5015163;28;45566;-78
2023/07/02 13:51:19;;;;;;;;;17.00;11.50;;;;;;;;5014596;28;45617;-78
2023/07/02 13:53:44;;;;;;;;;10.00;8.00;;;;;;;;5001583;28;46384;-77
2023/07/02 13:56:10;;;;;;;;;12.50;10.75;;;;;;;;4997821;28;45796;-77
2023/07/02 13:58:44;;;;;;;;;14.75;12.25;;;;;;;;5015733;28;45520;-78
2023/07/02 14:01:10;;;;;;;;;11.33;10.00;;;;;;;;5015409;28;45483;-79
2023/07/02 14:03:35;;;;;;;;;11.00;8.67;;;;;;;;5014444;28;45398;-78
2023/07/02 14:06:00;;;;;;;;;13.67;10.00;;;;;;;;5016054;28;45518;-79
2023/07/02 14:08:25;;;;;;;;;8.75;7.00;;;;;;;;5015881;28;45541;-79
2023/07/02 14:10:51;;;;;;;;;11.50;9.00;;;;;;;;5009528;28;45431;-79